createdAt,value
2023-02-11T00:01:36.260Z,3.80
2023-02-11T00:04:06.169Z,3.90
2023-02-11T00:06:35.132Z,3.80
2023-02-11T00:09:03.430Z,3.80
2023-02-11T00:11:30.805Z,3.80
2023-02-11T00:14:02.165Z,3.90
2023-02-11T00:16:29.846Z,3.80
2023-02-11T00:18:57.121Z,3.80
2023-02-11T00:21:26.219Z,3.80
2023-02-11T00:23:54.850Z,3.80
2023-02-11T00:26:25.993Z,3.80
2023-02-11T00:28:53.624Z,3.80
2023-02-11T00:31:23.083Z,3.80
2023-02-11T00:33:50.744Z,3.80
2023-02-11T00:36:29.303Z,3.80
2023-02-11T00:38:58.520Z,3.80
2023-02-11T00:41:26.113Z,3.80
2023-02-11T00:43:53.290Z,3.80
2023-02-11T00:46:21.509Z,3.80
2023-02-11T00:48:49.070Z,3.70
2023-02-11T00:51:16.119Z,3.70
2023-02-11T00:53:43.501Z,3.70
2023-02-11T00:56:10.667Z,3.60
2023-02-11T00:58:37.877Z,3.60
2023-02-11T01:01:05.696Z,3.60
2023-02-11T01:03:32.579Z,3.70
2023-02-11T01:05:59.472Z,3.60
2023-02-11T01:08:26.844Z,3.60
2023-02-11T01:11:03.638Z,3.70
2023-02-11T01:13:33.075Z,3.60
2023-02-11T01:16:00.561Z,3.60
2023-02-11T01:18:27.739Z,3.60
2023-02-11T01:20:54.954Z,3.70
2023-02-11T01:23:22.245Z,3.60
2023-02-11T01:25:49.610Z,3.50
2023-02-11T01:28:27.592Z,3.50
2023-02-11T01:30:55.542Z,3.60
2023-02-11T01:33:23.628Z,3.50
2023-02-11T01:35:51.436Z,3.50
2023-02-11T01:38:25.826Z,3.60
2023-02-11T01:41:00.221Z,3.50
2023-02-11T01:43:31.257Z,3.50
2023-02-11T01:46:38.186Z,3.60
2023-02-11T01:49:12.697Z,3.50
2023-02-11T01:51:50.314Z,3.50
2023-02-11T01:54:41.096Z,3.50
2023-02-11T01:57:23.071Z,3.50
2023-02-11T02:00:02.722Z,3.50
2023-02-11T02:02:52.385Z,3.50
2023-02-11T02:05:31.132Z,3.40
2023-02-11T02:08:11.007Z,3.40
2023-02-11T02:10:43.059Z,3.50
2023-02-11T02:13:10.861Z,3.50
2023-02-11T02:15:41.607Z,3.50
2023-02-11T02:18:19.609Z,3.60
2023-02-11T02:21:02.875Z,3.50
2023-02-11T02:23:39.082Z,3.50
2023-02-11T02:26:22.261Z,3.50
2023-02-11T02:29:09.216Z,3.50
2023-02-11T02:32:10.900Z,3.40
2023-02-11T02:34:49.520Z,3.50
2023-02-11T02:37:27.881Z,3.50
2023-02-11T02:39:59.634Z,3.50
2023-02-11T02:42:27.173Z,3.40
2023-02-11T02:44:56.084Z,3.50
2023-02-11T02:47:22.907Z,3.40
2023-02-11T02:49:50.671Z,3.40
2023-02-11T02:52:44.061Z,3.50
2023-02-11T02:55:25.779Z,3.50
2023-02-11T02:58:23.660Z,3.50
2023-02-11T03:01:18.107Z,3.50
2023-02-11T03:04:06.121Z,3.50
2023-02-11T03:06:35.963Z,3.40
2023-02-11T03:09:39.915Z,3.40
2023-02-11T03:12:09.279Z,3.40
2023-02-11T03:14:37.675Z,3.40
2023-02-11T03:17:08.371Z,3.40
2023-02-11T03:19:45.629Z,3.40
2023-02-11T03:22:22.839Z,3.40
2023-02-11T03:24:49.959Z,3.30
2023-02-11T03:27:35.094Z,3.30
2023-02-11T03:30:11.054Z,3.30
2023-02-11T03:32:52.505Z,3.30
2023-02-11T03:35:32.734Z,3.20
2023-02-11T03:38:17.593Z,3.20
2023-02-11T03:40:45.667Z,3.20
2023-02-11T03:43:26.969Z,3.30
2023-02-11T03:45:56.296Z,3.20
2023-02-11T03:48:31.411Z,3.30
2023-02-11T03:51:02.924Z,3.30
2023-02-11T03:53:29.884Z,3.30
2023-02-11T03:56:02.499Z,3.20
2023-02-11T03:58:29.362Z,3.20
2023-02-11T04:00:56.400Z,3.20
2023-02-11T04:03:23.244Z,3.20
2023-02-11T04:05:50.357Z,3.30
2023-02-11T04:08:17.324Z,3.30
2023-02-11T04:10:44.116Z,3.30
2023-02-11T04:13:11.041Z,3.30
2023-02-11T04:15:38.175Z,3.30
2023-02-11T04:18:05.040Z,3.30
2023-02-11T04:20:31.882Z,3.30
2023-02-11T04:22:58.721Z,3.30
2023-02-11T04:25:26.242Z,3.30
2023-02-11T04:27:53.081Z,3.30
2023-02-11T04:30:20.100Z,3.30
2023-02-11T04:32:46.962Z,3.30
2023-02-11T04:35:14.336Z,3.30
2023-02-11T04:37:41.204Z,3.20
2023-02-11T04:40:08.989Z,3.30
2023-02-11T04:42:35.812Z,3.20
2023-02-11T04:45:02.928Z,3.20
2023-02-11T04:47:29.855Z,3.10
2023-02-11T04:49:56.714Z,3.10
2023-02-11T04:52:23.516Z,3.10
2023-02-11T04:54:50.428Z,3.00
2023-02-11T04:57:17.379Z,3.00
2023-02-11T04:59:44.501Z,3.10
2023-02-11T05:02:11.322Z,3.00
2023-02-11T05:04:38.187Z,3.00
2023-02-11T05:07:05.014Z,2.90
2023-02-11T05:09:31.833Z,2.90
2023-02-11T05:11:58.733Z,2.90
2023-02-11T05:14:25.613Z,2.90
2023-02-11T05:16:52.594Z,3.00
2023-02-11T05:19:19.438Z,2.90
2023-02-11T05:22:01.338Z,2.90
2023-02-11T05:24:31.017Z,2.90
2023-02-11T05:26:57.875Z,2.90
2023-02-11T05:29:24.731Z,2.90
2023-02-11T05:31:51.584Z,2.80
2023-02-11T05:34:18.539Z,2.80
2023-02-11T05:36:45.421Z,2.80
2023-02-11T05:39:12.415Z,2.80
2023-02-11T05:41:39.303Z,2.90
2023-02-11T05:44:06.233Z,2.80
2023-02-11T05:46:33.209Z,2.80
2023-02-11T05:49:00.499Z,2.80
2023-02-11T05:51:27.628Z,2.80
2023-02-11T05:53:54.836Z,2.80
2023-02-11T05:56:21.642Z,2.80
2023-02-11T05:58:48.477Z,2.80
2023-02-11T06:01:15.309Z,2.80
2023-02-11T06:03:42.227Z,2.80
2023-02-11T06:06:12.842Z,2.90
2023-02-11T06:08:40.182Z,2.90
2023-02-11T06:11:07.280Z,2.90
2023-02-11T06:13:34.515Z,2.90
2023-02-11T06:16:03.624Z,2.80
2023-02-11T06:18:30.705Z,2.90
2023-02-11T06:20:57.532Z,2.80
2023-02-11T06:23:24.446Z,3.00
2023-02-11T06:25:52.642Z,3.00
2023-02-11T06:28:19.933Z,2.90
2023-02-11T06:30:46.844Z,3.00
2023-02-11T06:33:13.717Z,3.00
2023-02-11T06:35:40.563Z,3.00
2023-02-11T06:38:07.473Z,3.00
2023-02-11T06:40:34.383Z,2.90
2023-02-11T06:43:01.262Z,3.00
2023-02-11T06:45:28.126Z,3.00
2023-02-11T06:47:54.999Z,3.00
2023-02-11T06:50:22.205Z,3.10
2023-02-11T06:52:49.140Z,3.00
2023-02-11T06:55:15.958Z,3.00
2023-02-11T06:57:42.882Z,3.00
2023-02-11T07:00:10.693Z,3.00
2023-02-11T07:02:37.615Z,3.00
2023-02-11T07:05:07.208Z,3.00
2023-02-11T07:07:34.556Z,3.00
2023-02-11T07:10:03.167Z,3.00
2023-02-11T07:12:31.041Z,3.00
2023-02-11T07:14:58.357Z,3.00
2023-02-11T07:17:25.322Z,3.10
2023-02-11T07:19:52.164Z,3.10
2023-02-11T07:22:19.092Z,3.10
2023-02-11T07:24:45.945Z,3.20
2023-02-11T07:27:13.028Z,3.20
2023-02-11T07:29:42.269Z,3.20
2023-02-11T07:32:09.163Z,3.20
2023-02-11T07:34:36.104Z,3.30
2023-02-11T07:37:03.180Z,3.30
2023-02-11T07:39:30.073Z,3.40
2023-02-11T07:41:57.147Z,3.40
2023-02-11T07:44:24.134Z,3.40
2023-02-11T07:46:51.076Z,3.50
2023-02-11T07:49:17.895Z,3.50
2023-02-11T07:51:45.852Z,3.60
2023-02-11T07:54:12.701Z,3.60
2023-02-11T07:56:39.566Z,3.50
2023-02-11T07:59:06.485Z,3.60
2023-02-11T08:01:36.079Z,3.60
2023-02-11T08:04:04.158Z,3.60
2023-02-11T08:06:33.890Z,3.70
2023-02-11T08:09:07.614Z,3.70
2023-02-11T08:11:34.670Z,3.70
2023-02-11T08:14:01.772Z,3.80
2023-02-11T08:16:33.014Z,3.80
2023-02-11T08:19:04.404Z,3.80
2023-02-11T08:21:31.399Z,3.90
2023-02-11T08:23:58.547Z,3.90
2023-02-11T08:26:41.010Z,4.00
2023-02-11T08:29:11.581Z,4.00
2023-02-11T08:31:42.744Z,4.10
2023-02-11T08:34:11.600Z,4.10
2023-02-11T08:36:40.045Z,4.20
2023-02-11T08:39:20.064Z,4.20
2023-02-11T08:41:51.867Z,4.30
2023-02-11T08:44:20.983Z,4.30
2023-02-11T09:00:08.770Z,4.30
2023-02-11T09:02:35.927Z,4.90
2023-02-11T09:05:03.266Z,4.70
2023-02-11T09:07:30.261Z,4.70
2023-02-11T09:09:57.233Z,4.70
2023-02-11T09:12:24.282Z,4.70
2023-02-11T09:14:51.416Z,4.70
2023-02-11T09:17:18.428Z,4.60
2023-02-11T09:19:45.479Z,4.60
2023-02-11T09:22:12.425Z,4.60
2023-02-11T09:24:39.419Z,4.60
2023-02-11T09:27:06.960Z,4.60
2023-02-11T09:29:33.977Z,4.70
2023-02-11T09:32:01.187Z,4.70
2023-02-11T09:34:28.317Z,4.70
2023-02-11T09:36:55.319Z,4.70
2023-02-11T09:39:22.455Z,4.70
2023-02-11T09:42:39.868Z,4.70
2023-02-11T09:45:26.459Z,4.70
2023-02-11T09:48:07.618Z,4.70
2023-02-11T09:50:39.874Z,4.80
2023-02-11T09:53:25.449Z,4.80
2023-02-11T09:56:15.910Z,4.90
2023-02-11T09:58:45.352Z,4.80
2023-02-11T10:01:42.109Z,5.00
2023-02-11T10:04:59.074Z,5.00
2023-02-11T10:07:51.704Z,4.90
2023-02-11T10:10:27.682Z,5.00
2023-02-11T10:13:09.576Z,5.00
2023-02-11T10:16:10.357Z,5.00
2023-02-11T10:18:54.663Z,5.00
2023-02-11T10:21:47.095Z,5.10
2023-02-11T10:24:17.624Z,5.00
2023-02-11T10:26:46.178Z,5.20
2023-02-11T10:29:38.654Z,5.10
2023-02-11T10:32:31.309Z,5.10
2023-02-11T10:35:10.305Z,5.20
2023-02-11T10:37:37.479Z,5.30
2023-02-11T10:40:13.030Z,5.30
2023-02-11T10:42:46.941Z,5.30
2023-02-11T10:45:37.844Z,5.30
2023-02-11T10:48:26.522Z,5.40
2023-02-11T10:51:17.652Z,5.40
2023-02-11T10:54:13.913Z,5.40
2023-02-11T10:57:00.177Z,5.50
2023-02-11T10:59:40.353Z,5.50
2023-02-11T11:02:32.026Z,5.50
2023-02-11T11:05:20.870Z,5.60
2023-02-11T11:07:59.827Z,5.60
2023-02-11T11:10:44.586Z,5.70
2023-02-11T11:13:26.394Z,5.70
2023-02-11T11:16:34.013Z,5.70
2023-02-11T11:19:06.946Z,5.80
2023-02-11T11:21:55.075Z,5.80
2023-02-11T11:24:34.474Z,5.80
2023-02-11T11:27:05.230Z,5.80
2023-02-11T11:29:38.024Z,5.90
2023-02-11T11:32:33.692Z,6.00
2023-02-11T11:35:05.980Z,6.10
2023-02-11T11:37:37.026Z,6.00
2023-02-11T11:40:24.725Z,6.10
2023-02-11T11:43:14.682Z,6.10
2023-02-11T11:46:00.060Z,6.20
2023-02-11T11:48:40.305Z,6.20
2023-02-11T11:51:11.810Z,6.20
2023-02-11T11:54:00.338Z,6.20
2023-02-11T11:56:33.790Z,6.30
2023-02-11T11:59:13.106Z,6.30
2023-02-11T12:01:59.788Z,6.30
2023-02-11T12:04:45.581Z,6.40
2023-02-11T12:07:33.114Z,6.50
2023-02-11T12:10:15.097Z,6.50
2023-02-11T12:13:12.455Z,6.50
2023-02-11T12:15:52.039Z,6.60
2023-02-11T12:18:50.197Z,6.60
2023-02-11T12:21:41.648Z,6.50
2023-02-11T12:24:48.153Z,6.60
2023-02-11T12:27:42.511Z,6.60
2023-02-11T12:30:59.465Z,6.60
2023-02-11T12:34:00.038Z,6.60
2023-02-11T12:36:54.465Z,6.70
2023-02-11T12:39:36.800Z,6.60
2023-02-11T12:42:38.703Z,6.60
2023-02-11T12:45:12.175Z,6.60
2023-02-11T12:48:05.367Z,6.60
2023-02-11T12:51:09.208Z,6.60
2023-02-11T12:54:16.024Z,6.60
2023-02-11T12:57:12.728Z,6.60
2023-02-11T13:00:07.008Z,6.60
2023-02-11T13:03:14.139Z,6.60
2023-02-11T13:05:52.954Z,6.60
2023-02-11T13:08:28.790Z,6.60
2023-02-11T13:11:06.074Z,6.60
2023-02-11T13:13:57.671Z,6.60
2023-02-11T13:16:46.288Z,6.70
2023-02-11T13:19:13.380Z,6.70
2023-02-11T13:22:02.592Z,6.70
2023-02-11T13:25:18.969Z,6.70
2023-02-11T13:28:18.583Z,6.70
2023-02-11T13:30:47.418Z,6.60
2023-02-11T13:33:20.793Z,6.60
2023-02-11T13:35:56.790Z,6.70
2023-02-11T13:38:30.340Z,6.70
2023-02-11T13:41:37.551Z,6.70
2023-02-11T13:44:09.184Z,6.60
2023-02-11T13:47:02.150Z,6.60
2023-02-11T13:49:49.380Z,6.60
2023-02-11T13:52:34.115Z,6.60
2023-02-11T13:55:24.044Z,6.60
2023-02-11T13:58:14.323Z,6.60
2023-02-11T14:00:51.065Z,6.50
2023-02-11T14:03:53.166Z,6.60
2023-02-11T14:07:06.897Z,6.50
2023-02-11T14:09:39.134Z,6.60
2023-02-11T14:12:34.463Z,6.50
2023-02-11T14:15:23.163Z,6.50
2023-02-11T14:17:53.593Z,6.60
2023-02-11T14:20:40.557Z,6.50
2023-02-11T14:23:22.016Z,6.50
2023-02-11T14:26:07.236Z,6.60
2023-02-11T14:28:36.438Z,6.60
2023-02-11T14:31:14.959Z,6.60
2023-02-11T14:34:14.773Z,6.60
2023-02-11T14:37:23.120Z,6.60
2023-02-11T14:40:10.039Z,6.60
2023-02-11T14:42:38.918Z,6.60
2023-02-11T14:45:12.195Z,6.60
2023-02-11T14:48:08.531Z,6.60
2023-02-11T14:50:54.905Z,6.60
2023-02-11T14:53:26.370Z,6.60
2023-02-11T14:55:55.972Z,6.50
2023-02-11T14:58:30.207Z,6.60
2023-02-11T15:00:59.094Z,6.60
2023-02-11T15:03:27.676Z,6.60
2023-02-11T15:06:08.230Z,6.60
2023-02-11T15:08:38.734Z,6.60
2023-02-11T15:11:13.998Z,6.50
2023-02-11T15:13:47.659Z,6.50
2023-02-11T15:16:19.820Z,6.50
2023-02-11T15:19:07.833Z,6.50
2023-02-11T15:21:37.021Z,6.50
2023-02-11T15:24:21.256Z,6.50
2023-02-11T15:27:26.939Z,6.50
2023-02-11T15:29:55.739Z,6.50
2023-02-11T15:32:26.727Z,6.50
2023-02-11T15:34:57.082Z,6.60
2023-02-11T15:37:29.692Z,6.60
2023-02-11T15:40:25.207Z,6.60
2023-02-11T15:43:02.805Z,6.60
2023-02-11T15:46:07.902Z,6.60
2023-02-11T15:48:53.413Z,6.60
2023-02-11T15:51:29.561Z,6.60
2023-02-11T15:54:00.965Z,6.50
2023-02-11T15:56:44.377Z,6.60
2023-02-11T15:59:30.872Z,6.60
2023-02-11T16:02:20.444Z,6.60
2023-02-11T16:05:09.725Z,6.60
2023-02-11T16:07:46.285Z,6.60
2023-02-11T16:10:25.199Z,6.60
2023-02-11T16:13:00.511Z,6.60
2023-02-11T16:15:34.176Z,6.60
2023-02-11T16:18:19.456Z,6.60
2023-02-11T16:20:50.969Z,6.60
2023-02-11T16:23:26.214Z,6.60
2023-02-11T16:26:07.186Z,6.60
2023-02-11T16:28:36.858Z,6.60
2023-02-11T16:31:05.799Z,6.60
2023-02-11T16:33:33.351Z,6.60
2023-02-11T16:36:02.363Z,6.60
2023-02-11T16:38:32.736Z,6.60
2023-02-11T16:40:59.909Z,6.60
2023-02-11T16:43:27.173Z,6.70
2023-02-11T16:45:54.470Z,6.60
2023-02-11T16:48:21.897Z,6.70
2023-02-11T16:50:53.325Z,6.70
2023-02-11T16:53:25.299Z,6.70
2023-02-11T16:55:53.554Z,6.80
2023-02-11T16:58:20.904Z,6.80
2023-02-11T17:00:49.135Z,6.80
2023-02-11T17:03:29.592Z,6.80
2023-02-11T17:05:57.335Z,6.80
2023-02-11T17:08:24.689Z,6.80
2023-02-11T17:10:52.062Z,6.80
2023-02-11T17:13:19.587Z,6.70
2023-02-11T17:15:46.785Z,6.80
2023-02-11T17:18:14.760Z,6.80
2023-02-11T17:20:43.102Z,6.80
2023-02-11T17:23:10.558Z,6.80
2023-02-11T17:25:38.548Z,6.80
2023-02-11T17:28:08.230Z,6.80
2023-02-11T17:30:35.722Z,6.80
2023-02-11T17:33:03.286Z,6.90
2023-02-11T17:35:30.306Z,6.90
2023-02-11T17:37:58.926Z,6.80
2023-02-11T17:40:26.601Z,6.70
2023-02-11T17:42:53.858Z,6.80
2023-02-11T17:45:22.348Z,6.80
2023-02-11T17:47:49.996Z,6.90
2023-02-11T17:50:17.552Z,6.90
2023-02-11T17:52:45.194Z,6.80
2023-02-11T17:55:12.777Z,6.90
2023-02-11T17:57:39.990Z,6.90
2023-02-11T18:00:08.819Z,6.90
2023-02-11T18:02:36.069Z,7.00
2023-02-11T18:05:03.170Z,7.00
2023-02-11T18:07:30.590Z,6.90
2023-02-11T18:09:57.839Z,6.90
2023-02-11T18:12:28.077Z,6.80
2023-02-11T18:14:58.016Z,6.80
2023-02-11T18:17:26.689Z,6.70
2023-02-11T18:19:58.073Z,6.60
2023-02-11T18:22:25.942Z,6.60
2023-02-11T18:24:55.329Z,6.50
2023-02-11T18:27:23.065Z,6.50
2023-02-11T18:29:50.669Z,6.30
2023-02-11T18:32:17.721Z,6.30
2023-02-11T18:34:45.119Z,6.30
2023-02-11T18:37:14.374Z,6.20
2023-02-11T18:39:42.335Z,6.10
2023-02-11T18:42:10.854Z,6.00
2023-02-11T18:44:38.120Z,5.90
2023-02-11T18:47:05.172Z,5.80
2023-02-11T18:49:33.102Z,5.80
2023-02-11T18:52:00.363Z,5.70
2023-02-11T18:54:27.503Z,5.70
2023-02-11T18:56:54.882Z,5.70
2023-02-11T18:59:22.138Z,5.60
2023-02-11T19:01:49.914Z,5.60
2023-02-11T19:04:20.304Z,5.60
2023-02-11T19:06:51.903Z,5.60
2023-02-11T19:09:20.991Z,5.40
2023-02-11T19:11:51.435Z,5.30
2023-02-11T19:14:23.992Z,5.30
2023-02-11T19:16:55.395Z,5.20
2023-02-11T19:19:25.833Z,5.10
2023-02-11T19:21:53.350Z,5.10
2023-02-11T19:24:21.733Z,5.00
2023-02-11T19:26:50.924Z,5.00
2023-02-11T19:29:18.871Z,5.00
2023-02-11T19:31:46.537Z,5.10
2023-02-11T19:34:17.364Z,5.00
2023-02-11T19:36:44.988Z,5.00
2023-02-11T19:39:13.012Z,4.90
2023-02-11T19:41:40.547Z,5.00
2023-02-11T19:44:09.560Z,4.80
2023-02-11T19:46:41.158Z,4.60
2023-02-11T19:49:10.258Z,4.70
2023-02-11T19:51:39.683Z,4.60
2023-02-11T19:54:07.619Z,4.40
2023-02-11T19:56:34.834Z,4.40
2023-02-11T19:59:03.683Z,4.40
2023-02-11T20:01:30.880Z,4.30
2023-02-11T20:03:58.107Z,4.20
2023-02-11T20:06:30.495Z,4.20
2023-02-11T20:09:00.976Z,4.20
2023-02-11T20:11:33.840Z,4.20
2023-02-11T20:14:01.430Z,4.20
2023-02-11T20:16:47.074Z,4.20
2023-02-11T20:19:21.756Z,4.10
2023-02-11T20:21:53.654Z,4.00
2023-02-11T20:24:21.628Z,4.00
2023-02-11T20:26:49.715Z,3.90
2023-02-11T20:29:18.560Z,4.00
2023-02-11T20:31:46.011Z,4.00
2023-02-11T20:34:13.949Z,3.90
2023-02-11T20:36:41.575Z,3.90
2023-02-11T20:39:11.303Z,4.00
2023-02-11T20:41:40.019Z,4.00
2023-02-11T20:44:10.562Z,4.00
2023-02-11T20:46:42.257Z,4.00
2023-02-11T20:49:15.711Z,3.90
2023-02-11T20:51:43.633Z,3.90
2023-02-11T20:54:18.002Z,3.90
2023-02-11T20:56:48.272Z,3.90
2023-02-11T20:59:16.898Z,3.90
2023-02-11T21:01:48.756Z,3.80
2023-02-11T21:04:19.876Z,3.80
2023-02-11T21:06:50.175Z,3.80
2023-02-11T21:09:20.654Z,3.80
2023-02-11T21:11:49.415Z,3.80
2023-02-11T21:14:19.064Z,3.70
2023-02-11T21:16:47.302Z,3.60
2023-02-11T21:19:14.649Z,3.60
2023-02-11T21:21:42.504Z,3.60
2023-02-11T21:24:10.737Z,3.60
2023-02-11T21:26:39.361Z,3.60
2023-02-11T21:29:08.704Z,3.60
2023-02-11T21:31:36.917Z,3.60
2023-02-11T21:34:05.392Z,3.60
2023-02-11T21:36:32.624Z,3.60
2023-02-11T21:39:01.808Z,3.60
2023-02-11T21:41:29.122Z,3.50
2023-02-11T21:43:56.649Z,3.50
2023-02-11T21:46:23.949Z,3.40
2023-02-11T21:48:51.360Z,3.50
2023-02-11T21:51:23.773Z,3.50
2023-02-11T21:54:01.363Z,3.60
2023-02-11T21:56:33.916Z,3.50
2023-02-11T21:59:01.269Z,3.50
2023-02-11T22:01:32.442Z,3.40
2023-02-11T22:04:00.205Z,3.30
2023-02-11T22:06:33.168Z,3.30
2023-02-11T22:09:06.203Z,3.30
2023-02-11T22:11:33.803Z,3.30
2023-02-11T22:14:01.041Z,3.30
2023-02-11T22:16:29.492Z,3.20
2023-02-11T22:18:58.600Z,3.30
2023-02-11T22:21:26.413Z,3.30
2023-02-11T22:23:56.128Z,3.20
2023-02-11T22:26:26.560Z,3.20
2023-02-11T22:28:55.036Z,3.10
2023-02-11T22:31:27.724Z,3.20
2023-02-11T22:33:56.197Z,3.30
2023-02-11T22:36:30.928Z,3.30
2023-02-11T22:39:03.609Z,3.30
2023-02-11T22:41:31.680Z,3.30
2023-02-11T22:43:58.955Z,3.30
2023-02-11T22:46:26.780Z,3.30
2023-02-11T22:48:54.359Z,3.30
2023-02-11T22:51:25.815Z,3.30
2023-02-11T22:53:55.814Z,3.40
2023-02-11T22:56:24.207Z,3.50
2023-02-11T22:58:53.292Z,3.60
2023-02-11T23:01:20.821Z,3.60
2023-02-11T23:03:48.208Z,3.50
2023-02-11T23:06:15.895Z,3.50
2023-02-11T23:08:43.925Z,3.50
2023-02-11T23:11:20.512Z,3.40
2023-02-11T23:13:51.072Z,3.40
2023-02-11T23:16:23.899Z,3.40
2023-02-11T23:18:52.489Z,3.40
2023-02-11T23:21:32.445Z,3.40
2023-02-11T23:24:15.105Z,3.40
2023-02-11T23:26:44.062Z,3.40
2023-02-11T23:29:12.065Z,3.30
2023-02-11T23:31:43.985Z,3.20
2023-02-11T23:34:12.112Z,3.20
2023-02-11T23:36:39.223Z,3.20
2023-02-11T23:39:07.424Z,3.20
2023-02-11T23:41:34.983Z,3.30
2023-02-11T23:44:02.219Z,3.30
2023-02-11T23:46:29.490Z,3.40
2023-02-11T23:48:56.642Z,3.40
2023-02-11T23:51:24.561Z,3.20
2023-02-11T23:53:56.044Z,3.30
2023-02-11T23:56:27.293Z,3.40
2023-02-11T23:58:57.747Z,3.40
